PRIVATE WETTERSTATION BILLIGHEIM-ALLFELD                       ZURCK
Wetterdaten: Dienstag, 27.05.2014
Datum Zeit Temp. A. Temp. A. min Temp. A. max Feuchte A. Luftdruck Regen Wind Richtung Richtung Sonnenschein ET Solar Taupunkt Windchill Windben Empfang
27.05.2014 00:00 13,4 C 13,4 C 13,5 C 87 % 1010,1 hPa 0,2 l/m 0,0 km/h (0 Bft) N 0 0 min 0,000 mm 0 W/m 11,3 C 13,4 C 0,0 km/h (0 Bft) 98 %
27.05.2014 00:10 13,3 C 13,3 C 13,4 C 87 % 1010,1 hPa 0,0 l/m 1,6 km/h (1 Bft) SW 225 0 min 0,000 mm 0 W/m 11,2 C 13,3 C 3,2 km/h (1 Bft) 97 %
27.05.2014 00:20 13,2 C 13,2 C 13,3 C 87 % 1010,1 hPa 0,2 l/m 0,0 km/h (0 Bft) N 0 0 min 0,000 mm 0 W/m 11,1 C 13,2 C 0,0 km/h (0 Bft) 97 %
27.05.2014 00:30 13,2 C 13,2 C 13,2 C 87 % 1010,1 hPa 0,0 l/m 0,0 km/h (0 Bft) N 0 0 min 0,000 mm 0 W/m 11,1 C 13,2 C 0,0 km/h (0 Bft) 88 %
27.05.2014 00:40 13,2 C 13,1 C 13,2 C 87 % 1010,1 hPa 0,0 l/m 0,0 km/h (0 Bft) SW 225 0 min 0,000 mm 0 W/m 11,1 C 13,2 C 1,6 km/h (1 Bft) 98 %
27.05.2014 00:50 13,1 C 13,1 C 13,2 C 87 % 1010,0 hPa 0,2 l/m 0,0 km/h (0 Bft) SW 225 0 min 0,000 mm 0 W/m 11,0 C 13,1 C 1,6 km/h (1 Bft) 98 %
27.05.2014 01:00 13,1 C 13,1 C 13,1 C 87 % 1009,9 hPa 0,0 l/m 0,0 km/h (0 Bft) N 0 0 min 0,000 mm 0 W/m 11,0 C 13,1 C 0,0 km/h (0 Bft) 98 %
27.05.2014 01:10 13,1 C 13,1 C 13,1 C 87 % 1009,9 hPa 0,0 l/m 0,0 km/h (0 Bft) N 0 0 min 0,000 mm 0 W/m 11,0 C 13,1 C 0,0 km/h (0 Bft) 98 %
27.05.2014 01:20 13,1 C 13,1 C 13,1 C 87 % 1009,8 hPa 0,2 l/m 0,0 km/h (0 Bft) N 0 0 min 0,000 mm 0 W/m 11,0 C 13,1 C 0,0 km/h (0 Bft) 97 %
27.05.2014 01:30 13,1 C 13,1 C 13,1 C 87 % 1009,8 hPa 0,2 l/m 0,0 km/h (0 Bft) N 0 0 min 0,000 mm 0 W/m 11,0 C 13,1 C 0,0 km/h (0 Bft) 98 %
27.05.2014 01:40 13,1 C 13,1 C 13,1 C 87 % 1009,7 hPa 0,2 l/m 0,0 km/h (0 Bft) N 0 0 min 0,000 mm 0 W/m 11,0 C 13,1 C 0,0 km/h (0 Bft) 97 %
27.05.2014 01:50 13,1 C 13,1 C 13,1 C 87 % 1009,8 hPa 0,0 l/m 0,0 km/h (0 Bft) N 0 0 min 0,000 mm 0 W/m 11,0 C 13,1 C 0,0 km/h (0 Bft) 98 %
27.05.2014 02:00 13,1 C 13,1 C 13,1 C 87 % 1009,7 hPa 0,2 l/m 0,0 km/h (0 Bft) N 0 0 min 0,000 mm 0 W/m 11,0 C 13,1 C 0,0 km/h (0 Bft) 97 %
27.05.2014 02:10 13,1 C 13,1 C 13,1 C 87 % 1009,7 hPa 0,2 l/m 0,0 km/h (0 Bft) N 0 0 min 0,000 mm 0 W/m 11,0 C 13,1 C 0,0 km/h (0 Bft) 97 %
27.05.2014 02:20 13,1 C 13,1 C 13,1 C 87 % 1009,6 hPa 0,4 l/m 0,0 km/h (0 Bft) N 0 0 min 0,000 mm 0 W/m 11,0 C 13,1 C 0,0 km/h (0 Bft) 97 %
27.05.2014 02:30 13,1 C 13,1 C 13,1 C 87 % 1009,4 hPa 0,2 l/m 0,0 km/h (0 Bft) SW 225 0 min 0,000 mm 0 W/m 11,0 C 13,1 C 3,2 km/h (1 Bft) 97 %
27.05.2014 02:40 13,0 C 13,0 C 13,1 C 87 % 1009,4 hPa 0,2 l/m 0,0 km/h (0 Bft) SW 225 0 min 0,000 mm 0 W/m 10,9 C 13,0 C 3,2 km/h (1 Bft) 98 %
27.05.2014 02:50 12,9 C 12,9 C 13,0 C 87 % 1009,2 hPa 0,0 l/m 0,0 km/h (0 Bft) N 0 0 min 0,000 mm 0 W/m 10,8 C 12,9 C 0,0 km/h (0 Bft) 98 %
27.05.2014 03:00 12,9 C 12,9 C 12,9 C 87 % 1009,0 hPa 0,0 l/m 0,0 km/h (0 Bft) SW 225 0 min 0,000 mm 0 W/m 10,8 C 12,9 C 1,6 km/h (1 Bft) 98 %
27.05.2014 03:10 12,8 C 12,8 C 12,9 C 87 % 1009,1 hPa 0,0 l/m 0,0 km/h (0 Bft) SW 225 0 min 0,000 mm 0 W/m 10,7 C 12,8 C 3,2 km/h (1 Bft) 97 %
27.05.2014 03:20 12,6 C 12,6 C 12,8 C 87 % 1009,0 hPa 0,0 l/m 0,0 km/h (0 Bft) SW 225 0 min 0,000 mm 0 W/m 10,5 C 12,6 C 3,2 km/h (1 Bft) 98 %
27.05.2014 03:30 12,5 C 12,5 C 12,6 C 87 % 1009,0 hPa 0,0 l/m 0,0 km/h (0 Bft) SW 225 0 min 0,000 mm 0 W/m 10,4 C 12,5 C 3,2 km/h (1 Bft) 98 %
27.05.2014 03:40 12,6 C 12,4 C 12,6 C 87 % 1009,1 hPa 0,0 l/m 1,6 km/h (1 Bft) SW 225 0 min 0,000 mm 0 W/m 10,5 C 12,6 C 3,2 km/h (1 Bft) 97 %
27.05.2014 03:50 12,6 C 12,6 C 12,6 C 87 % 1009,0 hPa 0,2 l/m 1,6 km/h (1 Bft) SW 225 0 min 0,000 mm 0 W/m 10,5 C 12,6 C 4,8 km/h (1 Bft) 97 %
27.05.2014 04:00 12,6 C 12,6 C 12,6 C 87 % 1009,0 hPa 0,0 l/m 1,6 km/h (1 Bft) SW 225 0 min 0,000 mm 0 W/m 10,5 C 12,6 C 4,8 km/h (1 Bft) 97 %
27.05.2014 04:10 12,6 C 12,6 C 12,6 C 87 % 1008,9 hPa 0,0 l/m 1,6 km/h (1 Bft) S-SW 202 0 min 0,000 mm 0 W/m 10,5 C 12,6 C 6,4 km/h (2 Bft) 97 %
27.05.2014 04:20 12,6 C 12,5 C 12,6 C 87 % 1008,8 hPa 0,0 l/m 0,0 km/h (0 Bft) S-SW 202 0 min 0,000 mm 0 W/m 10,5 C 12,6 C 3,2 km/h (1 Bft) 98 %
27.05.2014 04:30 12,5 C 12,5 C 12,6 C 87 % 1008,8 hPa 0,0 l/m 0,0 km/h (0 Bft) S-SW 202 0 min 0,000 mm 0 W/m 10,4 C 12,5 C 4,8 km/h (1 Bft) 98 %
27.05.2014 04:40 12,4 C 12,4 C 12,5 C 87 % 1008,7 hPa 0,0 l/m 0,0 km/h (0 Bft) S-SW 202 0 min 0,000 mm 0 W/m 10,3 C 12,4 C 3,2 km/h (1 Bft) 97 %
27.05.2014 04:50 12,4 C 12,4 C 12,5 C 87 % 1008,8 hPa 0,0 l/m 0,0 km/h (0 Bft) S-SW 202 0 min 0,000 mm 0 W/m 10,3 C 12,4 C 3,2 km/h (1 Bft) 98 %
27.05.2014 05:00 12,5 C 12,4 C 12,5 C 87 % 1008,7 hPa 0,0 l/m 0,0 km/h (0 Bft) S-SW 202 0 min 0,000 mm 0 W/m 10,4 C 12,5 C 1,6 km/h (1 Bft) 98 %
27.05.2014 05:10 12,4 C 12,4 C 12,5 C 87 % 1008,7 hPa 0,0 l/m 0,0 km/h (0 Bft) S-SW 202 0 min 0,000 mm 0 W/m 10,3 C 12,4 C 1,6 km/h (1 Bft) 97 %
27.05.2014 05:20 12,3 C 12,3 C 12,4 C 87 % 1008,8 hPa 0,0 l/m 0,0 km/h (0 Bft) N 0 0 min 0,000 mm 0 W/m 10,2 C 12,3 C 0,0 km/h (0 Bft) 97 %
27.05.2014 05:30 12,3 C 12,3 C 12,3 C 87 % 1008,8 hPa 0,0 l/m 0,0 km/h (0 Bft) N 0 0 min 0,000 mm 0 W/m 10,2 C 12,3 C 0,0 km/h (0 Bft) 97 %
27.05.2014 05:40 12,4 C 12,3 C 12,4 C 87 % 1008,9 hPa 0,0 l/m 0,0 km/h (0 Bft) N 0 0 min 0,000 mm 0 W/m 10,3 C 12,4 C 0,0 km/h (0 Bft) 97 %
27.05.2014 05:50 12,5 C 12,4 C 12,5 C 87 % 1008,9 hPa 0,0 l/m 0,0 km/h (0 Bft) N 0 0 min 0,000 mm 0 W/m 10,4 C 12,5 C 0,0 km/h (0 Bft) 97 %
27.05.2014 06:00 12,6 C 12,5 C 12,6 C 87 % 1008,9 hPa 0,0 l/m 0,0 km/h (0 Bft) N 0 0 min 0,000 mm 5 W/m 10,5 C 12,6 C 0,0 km/h (0 Bft) 98 %
27.05.2014 06:10 12,6 C 12,6 C 12,6 C 87 % 1008,9 hPa 0,0 l/m 0,0 km/h (0 Bft) N 0 0 min 0,000 mm 11 W/m 10,5 C 12,6 C 0,0 km/h (0 Bft) 98 %
27.05.2014 06:20 12,7 C 12,6 C 12,7 C 87 % 1008,9 hPa 0,0 l/m 0,0 km/h (0 Bft) N 0 0 min 0,000 mm 18 W/m 10,6 C 12,7 C 0,0 km/h (0 Bft) 98 %
27.05.2014 06:30 12,8 C 12,7 C 12,8 C 87 % 1008,8 hPa 0,0 l/m 0,0 km/h (0 Bft) N 0 0 min 0,000 mm 33 W/m 10,7 C 12,8 C 0,0 km/h (0 Bft) 97 %
27.05.2014 06:40 12,8 C 12,8 C 12,8 C 87 % 1008,7 hPa 0,0 l/m 0,0 km/h (0 Bft) N 0 0 min 0,000 mm 46 W/m 10,7 C 12,8 C 0,0 km/h (0 Bft) 97 %
27.05.2014 06:50 12,9 C 12,8 C 12,9 C 87 % 1008,8 hPa 0,0 l/m 0,0 km/h (0 Bft) N 0 0 min 0,000 mm 42 W/m 10,8 C 12,9 C 0,0 km/h (0 Bft) 97 %
27.05.2014 07:00 12,9 C 12,9 C 12,9 C 87 % 1008,8 hPa 0,0 l/m 0,0 km/h (0 Bft) N 0 0 min 0,025 mm 39 W/m 10,8 C 12,9 C 0,0 km/h (0 Bft) 97 %
27.05.2014 07:10 13,1 C 12,9 C 13,1 C 87 % 1008,9 hPa 0,0 l/m 0,0 km/h (0 Bft) S-SW 202 0 min 0,000 mm 54 W/m 11,0 C 13,1 C 3,2 km/h (1 Bft) 98 %
27.05.2014 07:20 13,1 C 13,1 C 13,1 C 87 % 1008,9 hPa 0,0 l/m 1,6 km/h (1 Bft) S-SW 202 0 min 0,000 mm 58 W/m 11,0 C 13,1 C 4,8 km/h (1 Bft) 97 %
27.05.2014 07:30 13,2 C 13,1 C 13,2 C 87 % 1009,0 hPa 0,0 l/m 1,6 km/h (1 Bft) S-SW 202 0 min 0,000 mm 65 W/m 11,1 C 13,2 C 6,4 km/h (2 Bft) 98 %
27.05.2014 07:40 13,3 C 13,2 C 13,3 C 87 % 1009,1 hPa 0,0 l/m 1,6 km/h (1 Bft) S-SW 202 0 min 0,000 mm 90 W/m 11,2 C 13,3 C 8,0 km/h (2 Bft) 98 %
27.05.2014 07:50 13,4 C 13,3 C 13,4 C 87 % 1009,0 hPa 0,0 l/m 3,2 km/h (1 Bft) S-SW 202 0 min 0,000 mm 130 W/m 11,3 C 13,4 C 9,7 km/h (2 Bft) 98 %
27.05.2014 08:00 13,5 C 13,4 C 13,5 C 87 % 1009,1 hPa 0,0 l/m 0,0 km/h (0 Bft) SW 225 0 min 0,025 mm 100 W/m 11,4 C 13,5 C 8,0 km/h (2 Bft) 97 %
27.05.2014 08:10 13,7 C 13,5 C 13,7 C 87 % 1009,1 hPa 0,0 l/m 3,2 km/h (1 Bft) SW 225 10 min 0,000 mm 156 W/m 11,6 C 13,7 C 9,7 km/h (2 Bft) 97 %
27.05.2014 08:20 13,7 C 13,6 C 13,7 C 87 % 1009,2 hPa 0,0 l/m 1,6 km/h (1 Bft) SW 225 0 min 0,000 mm 130 W/m 11,6 C 13,7 C 9,7 km/h (2 Bft) 98 %
27.05.2014 08:30 13,9 C 13,7 C 13,9 C 87 % 1009,2 hPa 0,0 l/m 3,2 km/h (1 Bft) W-SW 247 0 min 0,000 mm 132 W/m 11,8 C 13,9 C 14,5 km/h (3 Bft) 98 %
27.05.2014 08:40 13,9 C 13,9 C 13,9 C 87 % 1009,4 hPa 0,0 l/m 3,2 km/h (1 Bft) W-SW 247 10 min 0,000 mm 232 W/m 11,8 C 13,9 C 9,7 km/h (2 Bft) 97 %
27.05.2014 08:50 14,0 C 13,9 C 14,0 C 87 % 1009,4 hPa 0,0 l/m 3,2 km/h (1 Bft) W-SW 247 10 min 0,000 mm 162 W/m 11,9 C 14,0 C 14,5 km/h (3 Bft) 98 %
27.05.2014 09:00 14,1 C 14,0 C 14,1 C 87 % 1009,5 hPa 0,0 l/m 1,6 km/h (1 Bft) W-SW 247 10 min 0,076 mm 160 W/m 12,0 C 14,1 C 9,7 km/h (2 Bft) 97 %
27.05.2014 09:10 14,2 C 14,1 C 14,2 C 87 % 1009,5 hPa 0,0 l/m 1,6 km/h (1 Bft) W-SW 247 10 min 0,000 mm 156 W/m 12,1 C 14,2 C 9,7 km/h (2 Bft) 97 %
27.05.2014 09:20 14,2 C 14,1 C 14,2 C 87 % 1009,6 hPa 0,0 l/m 3,2 km/h (1 Bft) W-SW 247 10 min 0,000 mm 174 W/m 12,1 C 14,2 C 11,3 km/h (2 Bft) 98 %
27.05.2014 09:30 14,2 C 14,2 C 14,2 C 87 % 1009,7 hPa 0,0 l/m 1,6 km/h (1 Bft) W 270 10 min 0,000 mm 156 W/m 12,1 C 14,2 C 8,0 km/h (2 Bft) 98 %
27.05.2014 09:40 14,3 C 14,2 C 14,3 C 87 % 1009,6 hPa 0,0 l/m 1,6 km/h (1 Bft) W 270 0 min 0,000 mm 98 W/m 12,2 C 14,3 C 9,7 km/h (2 Bft) 97 %
27.05.2014 09:50 14,4 C 14,3 C 14,4 C 87 % 1009,7 hPa 0,0 l/m 1,6 km/h (1 Bft) W 270 10 min 0,000 mm 153 W/m 12,3 C 14,4 C 9,7 km/h (2 Bft) 98 %
27.05.2014 10:00 14,4 C 14,4 C 14,5 C 88 % 1009,7 hPa 0,0 l/m 1,6 km/h (1 Bft) W-SW 247 10 min 0,076 mm 193 W/m 12,4 C 14,4 C 8,0 km/h (2 Bft) 98 %
27.05.2014 10:10 14,6 C 14,4 C 14,6 C 88 % 1009,7 hPa 0,0 l/m 4,8 km/h (1 Bft) W-SW 247 10 min 0,000 mm 229 W/m 12,6 C 14,6 C 12,9 km/h (3 Bft) 98 %
27.05.2014 10:20 14,6 C 14,6 C 14,6 C 88 % 1009,7 hPa 0,0 l/m 4,8 km/h (1 Bft) SW 225 10 min 0,000 mm 169 W/m 12,6 C 14,6 C 14,5 km/h (3 Bft) 97 %
27.05.2014 10:30 14,5 C 14,5 C 14,6 C 88 % 1009,7 hPa 0,0 l/m 3,2 km/h (1 Bft) W-SW 247 0 min 0,000 mm 135 W/m 12,5 C 14,5 C 12,9 km/h (3 Bft) 98 %
27.05.2014 10:40 14,4 C 14,4 C 14,5 C 88 % 1009,7 hPa 0,0 l/m 3,2 km/h (1 Bft) SW 225 0 min 0,000 mm 114 W/m 12,4 C 14,4 C 14,5 km/h (3 Bft) 97 %
27.05.2014 10:50 14,4 C 14,4 C 14,5 C 88 % 1009,8 hPa 0,0 l/m 6,4 km/h (2 Bft) W-SW 247 10 min 0,000 mm 236 W/m 12,4 C 14,4 C 16,1 km/h (3 Bft) 97 %
27.05.2014 11:00 14,4 C 14,4 C 14,5 C 88 % 1009,7 hPa 0,0 l/m 9,7 km/h (2 Bft) W 270 0 min 0,076 mm 151 W/m 12,4 C 12,6 C 20,9 km/h (4 Bft) 98 %
27.05.2014 11:10 14,7 C 14,4 C 14,7 C 87 % 1009,8 hPa 0,0 l/m 9,7 km/h (2 Bft) W-SW 247 10 min 0,000 mm 316 W/m 12,6 C 12,9 C 22,5 km/h (4 Bft) 98 %
27.05.2014 11:20 14,8 C 14,7 C 14,8 C 88 % 1009,8 hPa 0,0 l/m 6,4 km/h (2 Bft) W-SW 247 10 min 0,000 mm 288 W/m 12,8 C 14,8 C 20,9 km/h (4 Bft) 98 %
27.05.2014 11:30 14,4 C 14,4 C 14,8 C 87 % 1010,1 hPa 0,0 l/m 9,7 km/h (2 Bft) SW 214 0 min 0,001 mm 116 W/m 12,3 C 12,6 C 25,7 km/h (4 Bft) 99 %
27.05.2014 11:40 14,4 C 14,4 C 14,4 C 87 % 1010,2 hPa 0,0 l/m 7,8 km/h (2 Bft) W-NW 300 10 min 0,000 mm 193 W/m 12,3 C 13,6 C 17,7 km/h (3 Bft) 100 %
27.05.2014 11:50 14,3 C 14,3 C 14,4 C 88 % 1010,1 hPa 0,0 l/m 7,1 km/h (2 Bft) W-SW 242 10 min 0,000 mm 156 W/m 12,3 C 13,9 C 17,7 km/h (3 Bft) 97 %
27.05.2014 12:00 14,4 C 14,3 C 14,4 C 87 % 1010,2 hPa 0,0 l/m 8,2 km/h (2 Bft) W-SW 253 10 min 0,000 mm 350 W/m 12,3 C 13,4 C 19,3 km/h (3 Bft) 98 %
27.05.2014 12:10 14,6 C 14,4 C 14,6 C 87 % 1010,2 hPa 0,0 l/m 10,7 km/h (2 Bft) W 264 10 min 0,102 mm 374 W/m 12,5 C 12,4 C 25,7 km/h (4 Bft) 98 %
27.05.2014 12:20 14,7 C 14,6 C 14,7 C 86 % 1010,3 hPa 0,0 l/m 11,9 km/h (2 Bft) W-SW 257 10 min 0,000 mm 287 W/m 12,4 C 12,0 C 27,4 km/h (4 Bft) 98 %
27.05.2014 12:30 14,6 C 14,6 C 14,7 C 85 % 1010,4 hPa 0,0 l/m 9,7 km/h (2 Bft) W 263 10 min 0,000 mm 244 W/m 12,1 C 12,8 C 29,0 km/h (5 Bft) 97 %
27.05.2014 12:40 14,7 C 14,6 C 14,7 C 85 % 1010,4 hPa 0,0 l/m 9,7 km/h (2 Bft) W-SW 252 10 min 0,000 mm 381 W/m 12,2 C 12,9 C 24,1 km/h (4 Bft) 97 %
27.05.2014 12:50 14,9 C 14,7 C 15,0 C 83 % 1010,3 hPa 0,0 l/m 12,4 km/h (3 Bft) W 268 10 min 0,000 mm 359 W/m 12,0 C 12,0 C 27,4 km/h (4 Bft) 97 %
27.05.2014 13:00 15,1 C 14,9 C 15,1 C 82 % 1010,3 hPa 0,0 l/m 10,1 km/h (2 Bft) SW 233 10 min 0,203 mm 362 W/m 12,0 C 13,2 C 24,1 km/h (4 Bft) 98 %
27.05.2014 13:10 15,3 C 15,1 C 15,3 C 81 % 1010,2 hPa 0,0 l/m 11,0 km/h (2 Bft) W 264 10 min 0,000 mm 504 W/m 12,1 C 13,0 C 25,7 km/h (4 Bft) 98 %
27.05.2014 13:20 15,7 C 15,3 C 15,7 C 81 % 1010,2 hPa 0,0 l/m 9,4 km/h (2 Bft) W-NW 300 10 min 0,000 mm 471 W/m 12,4 C 14,2 C 25,7 km/h (4 Bft) 98 %
27.05.2014 13:30 16,1 C 15,7 C 16,1 C 78 % 1010,2 hPa 0,0 l/m 9,1 km/h (2 Bft) W-SW 255 10 min 0,000 mm 468 W/m 12,3 C 14,7 C 22,5 km/h (4 Bft) 97 %
27.05.2014 13:40 16,3 C 16,1 C 16,3 C 77 % 1010,3 hPa 0,0 l/m 9,8 km/h (2 Bft) W 266 10 min 0,000 mm 462 W/m 12,3 C 14,6 C 20,9 km/h (4 Bft) 98 %
27.05.2014 13:50 16,4 C 16,3 C 16,4 C 76 % 1010,3 hPa 0,0 l/m 9,9 km/h (2 Bft) W 265 10 min 0,000 mm 367 W/m 12,2 C 14,7 C 24,1 km/h (4 Bft) 97 %
27.05.2014 14:00 16,3 C 16,3 C 16,4 C 76 % 1010,3 hPa 0,0 l/m 11,8 km/h (2 Bft) W 262 10 min 0,254 mm 292 W/m 12,1 C 13,8 C 27,4 km/h (4 Bft) 98 %
27.05.2014 14:10 16,1 C 16,1 C 16,3 C 77 % 1010,3 hPa 0,0 l/m 9,1 km/h (2 Bft) W-NW 291 10 min 0,000 mm 209 W/m 12,1 C 14,7 C 22,5 km/h (4 Bft) 97 %
27.05.2014 14:20 16,1 C 16,1 C 16,1 C 79 % 1010,1 hPa 0,0 l/m 7,1 km/h (2 Bft) W 271 10 min 0,000 mm 353 W/m 12,5 C 15,7 C 19,3 km/h (3 Bft) 98 %
27.05.2014 14:30 16,3 C 16,1 C 16,3 C 78 % 1010,1 hPa 0,0 l/m 7,6 km/h (2 Bft) W-SW 245 10 min 0,000 mm 325 W/m 12,5 C 15,7 C 17,7 km/h (3 Bft) 97 %
27.05.2014 14:40 16,6 C 16,3 C 16,6 C 75 % 1010,1 hPa 0,0 l/m 8,7 km/h (2 Bft) W 271 10 min 0,000 mm 308 W/m 12,1 C 15,5 C 22,5 km/h (4 Bft) 97 %
27.05.2014 14:50 16,7 C 16,6 C 16,7 C 75 % 1009,9 hPa 0,0 l/m 4,9 km/h (1 Bft) SW 219 10 min 0,000 mm 441 W/m 12,2 C 16,7 C 16,1 km/h (3 Bft) 98 %
27.05.2014 15:00 17,0 C 16,7 C 17,1 C 73 % 1010,1 hPa 0,0 l/m 8,5 km/h (2 Bft) W-SW 256 10 min 0,203 mm 272 W/m 12,1 C 16,0 C 20,9 km/h (4 Bft) 97 %
27.05.2014 15:10 16,7 C 16,7 C 17,1 C 73 % 1010,1 hPa 0,0 l/m 14,0 km/h (3 Bft) W-SW 245 0 min 0,000 mm 83 W/m 11,8 C 13,6 C 32,2 km/h (5 Bft) 98 %
27.05.2014 15:20 16,3 C 16,3 C 16,7 C 76 % 1010,2 hPa 0,0 l/m 11,3 km/h (2 Bft) W-SW 250 10 min 0,000 mm 329 W/m 12,1 C 14,0 C 27,4 km/h (4 Bft) 97 %
27.05.2014 15:30 16,6 C 16,3 C 16,6 C 76 % 1010,1 hPa 0,0 l/m 8,4 km/h (2 Bft) W-NW 285 10 min 0,000 mm 392 W/m 12,3 C 15,6 C 22,5 km/h (4 Bft) 98 %
27.05.2014 15:40 17,2 C 16,6 C 17,2 C 75 % 1010,0 hPa 0,0 l/m 9,4 km/h (2 Bft) SW 216 10 min 0,000 mm 527 W/m 12,7 C 15,8 C 25,7 km/h (4 Bft) 97 %
27.05.2014 15:50 17,8 C 17,2 C 17,8 C 73 % 1010,0 hPa 0,0 l/m 11,9 km/h (2 Bft) W 272 10 min 0,000 mm 290 W/m 12,9 C 15,5 C 24,1 km/h (4 Bft) 97 %
27.05.2014 16:00 17,9 C 17,8 C 17,9 C 71 % 1009,8 hPa 0,0 l/m 13,7 km/h (3 Bft) SW 227 10 min 0,254 mm 969 W/m 12,6 C 15,1 C 27,4 km/h (4 Bft) 98 %
27.05.2014 16:10 17,8 C 17,8 C 18,1 C 69 % 1010,0 hPa 0,0 l/m 12,5 km/h (3 Bft) SW 229 10 min 0,000 mm 211 W/m 12,0 C 15,3 C 29,0 km/h (5 Bft) 97 %
27.05.2014 16:20 18,0 C 17,7 C 18,0 C 68 % 1010,0 hPa 0,0 l/m 12,7 km/h (3 Bft) W-SW 255 10 min 0,000 mm 390 W/m 12,0 C 15,5 C 29,0 km/h (5 Bft) 97 %
27.05.2014 16:30 18,0 C 18,0 C 18,0 C 67 % 1010,0 hPa 0,0 l/m 9,0 km/h (2 Bft) W-NW 302 10 min 0,000 mm 279 W/m 11,8 C 16,8 C 24,1 km/h (4 Bft) 98 %
27.05.2014 16:40 17,8 C 17,8 C 18,0 C 68 % 1010,0 hPa 0,0 l/m 11,2 km/h (2 Bft) W 269 10 min 0,000 mm 248 W/m 11,8 C 15,8 C 24,1 km/h (4 Bft) 97 %
27.05.2014 16:50 17,7 C 17,7 C 17,8 C 67 % 1010,0 hPa 0,0 l/m 8,5 km/h (2 Bft) W 263 10 min 0,000 mm 234 W/m 11,5 C 16,7 C 20,9 km/h (4 Bft) 97 %
27.05.2014 17:00 17,6 C 17,6 C 17,7 C 67 % 1010,1 hPa 0,0 l/m 8,9 km/h (2 Bft) W-SW 253 10 min 0,229 mm 322 W/m 11,4 C 16,4 C 22,5 km/h (4 Bft) 98 %
27.05.2014 17:10 17,7 C 17,6 C 17,7 C 68 % 1010,1 hPa 0,0 l/m 8,0 km/h (2 Bft) W 271 10 min 0,000 mm 225 W/m 11,7 C 16,9 C 19,3 km/h (3 Bft) 97 %
27.05.2014 17:20 17,5 C 17,5 C 17,7 C 66 % 1010,1 hPa 0,0 l/m 12,5 km/h (3 Bft) W-SW 253 0 min 0,000 mm 141 W/m 11,1 C 15,0 C 27,4 km/h (4 Bft) 97 %
27.05.2014 17:30 17,2 C 17,2 C 17,5 C 69 % 1010,2 hPa 0,0 l/m 7,1 km/h (2 Bft) SW 226 0 min 0,000 mm 120 W/m 11,5 C 16,9 C 17,7 km/h (3 Bft) 98 %
27.05.2014 17:40 17,1 C 17,0 C 17,2 C 69 % 1010,0 hPa 0,0 l/m 7,2 km/h (2 Bft) W-SW 257 10 min 0,000 mm 153 W/m 11,4 C 16,7 C 14,5 km/h (3 Bft) 97 %
27.05.2014 17:50 17,1 C 17,0 C 17,1 C 70 % 1010,0 hPa 0,0 l/m 8,3 km/h (2 Bft) SW 232 10 min 0,000 mm 204 W/m 11,6 C 16,2 C 20,9 km/h (4 Bft) 98 %
27.05.2014 18:00 17,0 C 17,0 C 17,1 C 69 % 1010,1 hPa 0,0 l/m 11,6 km/h (2 Bft) W 268 0 min 0,127 mm 116 W/m 11,3 C 14,7 C 30,6 km/h (5 Bft) 97 %
27.05.2014 18:10 16,9 C 16,9 C 17,0 C 70 % 1010,2 hPa 0,0 l/m 8,2 km/h (2 Bft) W-SW 242 0 min 0,000 mm 72 W/m 11,4 C 16,0 C 22,5 km/h (4 Bft) 98 %
27.05.2014 18:20 16,5 C 16,5 C 16,9 C 71 % 1010,1 hPa 0,0 l/m 10,0 km/h (2 Bft) S-SW 201 0 min 0,000 mm 37 W/m 11,2 C 14,8 C 27,4 km/h (4 Bft) 97 %
27.05.2014 18:30 16,2 C 16,2 C 16,5 C 72 % 1010,2 hPa 0,0 l/m 7,8 km/h (2 Bft) W 264 0 min 0,000 mm 21 W/m 11,1 C 15,5 C 22,5 km/h (4 Bft) 98 %
27.05.2014 18:40 15,9 C 15,9 C 16,2 C 73 % 1010,2 hPa 0,0 l/m 7,5 km/h (2 Bft) W 261 0 min 0,000 mm 26 W/m 11,1 C 15,3 C 22,5 km/h (4 Bft) 100 %
27.05.2014 18:50 15,7 C 15,7 C 15,9 C 75 % 1010,1 hPa 0,0 l/m 3,5 km/h (1 Bft) W-SW 242 0 min 0,000 mm 37 W/m 11,3 C 15,7 C 12,9 km/h (3 Bft) 100 %
27.05.2014 19:00 15,6 C 15,6 C 15,7 C 75 % 1010,2 hPa 0,0 l/m 5,8 km/h (2 Bft) SW 224 0 min 0,051 mm 42 W/m 11,2 C 15,6 C 17,7 km/h (3 Bft) 100 %
27.05.2014 19:10 15,6 C 15,6 C 15,6 C 75 % 1010,2 hPa 0,0 l/m 4,6 km/h (1 Bft) W-SW 252 0 min 0,000 mm 40 W/m 11,2 C 15,6 C 20,9 km/h (4 Bft) 100 %
27.05.2014 19:20 15,5 C 15,5 C 15,6 C 75 % 1010,3 hPa 0,0 l/m 6,5 km/h (2 Bft) W-SW 240 0 min 0,000 mm 37 W/m 11,1 C 15,5 C 22,5 km/h (4 Bft) 100 %
27.05.2014 19:30 15,4 C 15,4 C 15,5 C 75 % 1010,4 hPa 0,0 l/m 5,1 km/h (1 Bft) W-SW 245 0 min 0,000 mm 35 W/m 11,0 C 15,4 C 14,5 km/h (3 Bft) 100 %
27.05.2014 19:40 15,3 C 15,3 C 15,4 C 75 % 1010,4 hPa 0,0 l/m 6,9 km/h (2 Bft) W-SW 247 0 min 0,000 mm 30 W/m 10,9 C 15,0 C 20,9 km/h (4 Bft) 100 %
27.05.2014 19:50 15,2 C 15,2 C 15,3 C 75 % 1010,4 hPa 0,0 l/m 7,1 km/h (2 Bft) W-SW 239 0 min 0,000 mm 28 W/m 10,8 C 14,8 C 17,7 km/h (3 Bft) 100 %
27.05.2014 20:00 15,1 C 15,1 C 15,2 C 75 % 1010,4 hPa 0,0 l/m 4,4 km/h (1 Bft) W-SW 258 0 min 0,000 mm 33 W/m 10,7 C 15,1 C 12,9 km/h (3 Bft) 100 %
27.05.2014 20:10 15,1 C 15,1 C 15,1 C 76 % 1010,4 hPa 0,0 l/m 5,3 km/h (1 Bft) S-SW 209 0 min 0,051 mm 35 W/m 10,9 C 15,1 C 17,7 km/h (3 Bft) 100 %
27.05.2014 20:20 15,1 C 15,1 C 15,1 C 76 % 1010,6 hPa 0,0 l/m 4,9 km/h (1 Bft) S-SW 209 0 min 0,000 mm 30 W/m 10,9 C 15,1 C 16,1 km/h (3 Bft) 99 %
27.05.2014 20:30 14,9 C 14,9 C 15,1 C 77 % 1010,6 hPa 0,0 l/m 4,0 km/h (1 Bft) W-SW 257 0 min 0,000 mm 26 W/m 10,9 C 14,9 C 16,1 km/h (3 Bft) 99 %
27.05.2014 20:40 14,9 C 14,9 C 15,0 C 78 % 1010,6 hPa 0,0 l/m 3,6 km/h (1 Bft) SW 219 0 min 0,000 mm 21 W/m 11,1 C 14,9 C 9,7 km/h (2 Bft) 99 %
27.05.2014 20:50 14,8 C 14,8 C 14,9 C 78 % 1010,5 hPa 0,0 l/m 5,4 km/h (1 Bft) SW 232 0 min 0,000 mm 14 W/m 11,0 C 14,8 C 16,1 km/h (3 Bft) 100 %
27.05.2014 21:00 14,6 C 14,6 C 14,8 C 78 % 1010,5 hPa 0,0 l/m 6,7 km/h (2 Bft) SW 232 0 min 0,025 mm 7 W/m 10,8 C 14,4 C 19,3 km/h (3 Bft) 100 %
27.05.2014 21:10 14,5 C 14,5 C 14,6 C 79 % 1010,6 hPa 0,0 l/m 6,4 km/h (2 Bft) SW 225 0 min 0,000 mm 7 W/m 10,9 C 14,5 C 22,5 km/h (4 Bft) 100 %
27.05.2014 21:20 14,4 C 14,4 C 14,5 C 79 % 1010,8 hPa 0,0 l/m 4,8 km/h (1 Bft) W-SW 247 0 min 0,000 mm 0 W/m 10,8 C 14,4 C 16,1 km/h (3 Bft) 100 %
27.05.2014 21:30 14,4 C 14,4 C 14,4 C 79 % 1010,8 hPa 0,0 l/m 6,4 km/h (2 Bft) W-SW 247 0 min 0,000 mm 0 W/m 10,8 C 14,4 C 25,7 km/h (4 Bft) 100 %
27.05.2014 21:40 14,4 C 14,4 C 14,4 C 79 % 1010,8 hPa 0,0 l/m 3,2 km/h (1 Bft) W 270 0 min 0,000 mm 0 W/m 10,8 C 14,4 C 12,9 km/h (3 Bft) 100 %
27.05.2014 21:50 14,4 C 14,4 C 14,4 C 79 % 1010,9 hPa 0,0 l/m 6,4 km/h (2 Bft) W-SW 247 0 min 0,000 mm 0 W/m 10,8 C 14,4 C 16,1 km/h (3 Bft) 100 %
27.05.2014 22:00 14,3 C 14,3 C 14,4 C 79 % 1011,0 hPa 0,0 l/m 6,4 km/h (2 Bft) W 270 0 min 0,025 mm 0 W/m 10,7 C 14,3 C 17,7 km/h (3 Bft) 100 %
27.05.2014 22:10 14,3 C 14,3 C 14,4 C 79 % 1011,2 hPa 0,0 l/m 6,4 km/h (2 Bft) W-SW 247 0 min 0,000 mm 0 W/m 10,7 C 14,3 C 17,7 km/h (3 Bft) 100 %
27.05.2014 22:20 14,3 C 14,3 C 14,3 C 79 % 1011,1 hPa 0,0 l/m 6,4 km/h (2 Bft) W 270 0 min 0,000 mm 0 W/m 10,7 C 14,3 C 17,7 km/h (3 Bft) 100 %
27.05.2014 22:30 14,3 C 14,3 C 14,3 C 79 % 1011,0 hPa 0,0 l/m 8,0 km/h (2 Bft) W-SW 247 0 min 0,000 mm 0 W/m 10,7 C 13,4 C 24,1 km/h (4 Bft) 100 %
27.05.2014 22:40 14,2 C 14,2 C 14,3 C 80 % 1011,1 hPa 0,0 l/m 4,8 km/h (1 Bft) W-SW 247 0 min 0,000 mm 0 W/m 10,8 C 14,2 C 17,7 km/h (3 Bft) 100 %
27.05.2014 22:50 14,1 C 14,1 C 14,2 C 81 % 1011,2 hPa 0,0 l/m 4,8 km/h (1 Bft) SW 225 0 min 0,000 mm 0 W/m 10,9 C 14,1 C 9,7 km/h (2 Bft) 90 %
27.05.2014 23:00 13,9 C 13,9 C 14,1 C 81 % 1011,4 hPa 0,0 l/m 8,0 km/h (2 Bft) W-SW 247 0 min 0,025 mm 0 W/m 10,7 C 12,9 C 20,9 km/h (4 Bft) 100 %
27.05.2014 23:10 13,8 C 13,8 C 13,9 C 81 % 1011,5 hPa 0,0 l/m 8,0 km/h (2 Bft) W-SW 247 0 min 0,000 mm 0 W/m 10,6 C 12,8 C 19,3 km/h (3 Bft) 100 %
27.05.2014 23:20 13,7 C 13,7 C 13,8 C 81 % 1011,5 hPa 0,0 l/m 6,4 km/h (2 Bft) W 270 0 min 0,000 mm 0 W/m 10,5 C 13,7 C 22,5 km/h (4 Bft) 100 %
27.05.2014 23:30 13,6 C 13,6 C 13,7 C 81 % 1011,6 hPa 0,0 l/m 8,0 km/h (2 Bft) W 270 0 min 0,000 mm 0 W/m 10,4 C 12,6 C 19,3 km/h (3 Bft) 100 %
27.05.2014 23:40 13,6 C 13,6 C 13,6 C 82 % 1011,6 hPa 0,0 l/m 8,0 km/h (2 Bft) W 270 0 min 0,000 mm 0 W/m 10,6 C 12,6 C 20,9 km/h (4 Bft) 100 %
27.05.2014 23:50 13,5 C 13,5 C 13,6 C 82 % 1011,7 hPa 0,0 l/m 6,4 km/h (2 Bft) W 270 0 min 0,000 mm 0 W/m 10,5 C 13,5 C 16,1 km/h (3 Bft) 100 %
_ Min-Zeit 05:20 05:20 05:30 17:20 04:40 - 00:00 - - - - - 05:20 12:20 00:00 00:30
Minimum _ 12,3 C 12,3 C 12,3 C 66 % 1008,7 hPa - 0,0 km/h (0 Bft) - - - - - 10,2 C 12,0 C 0,0 km/h (0 Bft) 88 %
_ Max-Zeit 16:10 16:30 16:10 10:00 23:50 02:20 15:10 - - 08:10 14:00 16:00 15:50 17:10 15:10 19:10
Maximum _ 18,1 C 18,0 C 18,1 C 88 % 1011,7 hPa 0,4 l/m 14,0 km/h
W-SW (3 Bft)
- - 10 min 0,254 mm 969 W/m 12,9 C 16,9 C 32,2 km/h
S (5 Bft)
100 %
Durchschnitt _ 14,5 C 14,4 C 14,6 C 82 % 1009,9 hPa #2,6 l/m 4,8 km/h (1 Bft) W-SW - #8:10 h #1,828 mm 188 W/m 11,3 C 14,0 C 13,5 km/h (3 Bft) 98 %
PRIVATE WETTERSTATION BILLIGHEIM-ALLFELD - www.neckar-odenwald-wetter.de - Holger Sonntag